Time;durP1;ratioP1;P1;durP2;ratioP2;P2;SDS_P1;SDS_P2;PMS_P1;PMS_P2;Temp;Humidity;BMP_temperature;BMP_pressure;BME280_temperature;BME280_humidity;BME280_pressure;Samples;Min_cycle;Max_cycle;Signal;HPM_P1;HPM_P2
2022/09/05 00:01:06;;;;;;;3.55;2.08;;;21.40;73.70;;;;;;5071539;28;20052;-70
2022/09/05 00:04:21;;;;;;;4.53;2.10;;;21.30;74.20;;;;;;5071540;28;20558;-70
2022/09/05 00:07:09;;;;;;;6.07;1.67;;;21.30;74.50;;;;;;5033868;28;20051;-70
2022/09/05 00:10:05;;;;;;;5.38;2.00;;;21.20;75.50;;;;;;5075259;28;20048;-70
2022/09/05 00:12:32;;;;;;;3.47;2.30;;;21.20;75.80;;;;;;5058581;28;20033;-70
2022/09/05 00:15:22;;;;;;;4.40;2.10;;;21.10;76.00;;;;;;5075191;28;20036;-70
2022/09/05 00:18:19;;;;;;;5.45;2.08;;;21.10;76.80;;;;;;5058794;28;20036;-70
2022/09/05 00:21:06;;;;;;;5.10;2.15;;;21.00;77.50;;;;;;5075356;28;20047;-70
2022/09/05 00:23:40;;;;;;;7.07;2.13;;;21.00;78.50;;;;;;5058402;28;20076;-70
2022/09/05 00:26:21;;;;;;;4.63;2.25;;;20.90;79.20;;;;;;5074984;28;20045;-70
2022/09/05 00:29:05;;;;;;;6.35;2.58;;;20.90;79.60;;;;;;5074922;28;20041;-70
2022/09/05 00:31:51;;;;;;;5.85;1.90;;;20.80;80.40;;;;;;5074925;28;20040;-70
2022/09/05 00:34:19;;;;;;;5.95;2.58;;;20.80;81.10;;;;;;5074864;28;20052;-70
2022/09/05 00:36:47;;;;;;;4.15;2.35;;;20.70;81.30;;;;;;5075096;28;20404;-70
2022/09/05 00:39:24;;;;;;;4.95;2.10;;;20.80;81.10;;;;;;5074907;28;20040;-70
2022/09/05 00:41:53;;;;;;;5.72;2.25;;;20.70;81.40;;;;;;5074714;28;20041;-70
2022/09/05 00:44:22;;;;;;;3.55;1.95;;;20.70;82.30;;;;;;5074884;28;20052;-70
2022/09/05 00:47:10;;;;;;;4.55;2.10;;;20.70;82.30;;;;;;5074525;28;20554;-70
2022/09/05 00:49:38;;;;;;;4.13;2.80;;;20.70;81.60;;;;;;5074486;28;20047;-70
2022/09/05 00:52:27;;;;;;;8.27;2.67;;;20.60;82.10;;;;;;5074480;28;20119;-70
2022/09/05 00:55:19;;;;;;;5.70;2.42;;;20.70;82.20;;;;;;5074487;28;20090;-70
2022/09/05 00:58:38;;;;;;;6.13;2.60;;;20.60;82.40;;;;;;5074420;28;20036;-70
2022/09/05 01:01:24;;;;;;;3.25;2.15;;;20.60;82.50;;;;;;5036802;28;20048;-70
2022/09/05 01:03:55;;;;;;;4.72;2.25;;;20.50;82.60;;;;;;5074344;28;20090;-70
2022/09/05 01:06:26;;;;;;;5.80;2.30;;;20.50;83.20;;;;;;5074325;28;20078;-70
2022/09/05 01:09:16;;;;;;;8.90;2.40;;;20.50;83.50;;;;;;5074233;28;20032;-70
2022/09/05 01:12:10;;;;;;;5.88;2.22;;;20.50;83.70;;;;;;5074204;28;20052;-70
2022/09/05 01:14:47;;;;;;;6.00;2.45;;;20.50;84.10;;;;;;5074119;28;20478;-70
2022/09/05 01:17:40;;;;;;;5.22;2.25;;;20.40;84.50;;;;;;5074408;28;20040;-70
2022/09/05 01:20:45;;;;;;;5.93;2.30;;;20.40;84.60;;;;;;5073833;28;20556;-70
2022/09/05 01:23:41;;;;;;;6.93;2.15;;;20.40;85.30;;;;;;5074211;28;20103;-70
2022/09/05 01:26:07;;;;;;;4.65;2.50;;;20.30;86.20;;;;;;5073725;28;20044;-70
2022/09/05 01:29:12;;;;;;;4.03;2.47;;;20.20;86.60;;;;;;5073709;28;20047;-70
2022/09/05 01:32:15;;;;;;;3.47;2.17;;;20.20;86.60;;;;;;5019777;28;20167;-70
2022/09/05 01:35:19;;;;;;;3.95;2.38;;;20.20;87.00;;;;;;5036371;28;20057;-70
2022/09/05 01:37:52;;;;;;;7.20;2.83;;;20.10;87.20;;;;;;5036455;28;20059;-70
2022/09/05 01:40:27;;;;;;;7.20;2.97;;;20.10;87.80;;;;;;5035951;28;20076;-70
2022/09/05 01:43:07;;;;;;;6.90;2.80;;;20.10;88.50;;;;;;5036108;28;20528;-70
2022/09/05 01:45:35;;;;;;;9.15;2.50;;;20.10;88.50;;;;;;5035950;28;20041;-70
2022/09/05 01:48:09;;;;;;;4.57;2.42;;;20.00;88.70;;;;;;5036243;28;20045;-71
2022/09/05 01:50:49;;;;;;;7.38;3.03;;;20.00;89.00;;;;;;5036192;28;20044;-70
2022/09/05 01:53:33;;;;;;;4.00;2.33;;;19.90;89.20;;;;;;5035853;28;20444;-70
2022/09/05 01:56:29;;;;;;;5.55;2.60;;;19.90;90.00;;;;;;5035835;28;20083;-70
2022/09/05 01:58:54;;;;;;;4.95;2.33;;;19.90;90.00;;;;;;5035894;28;20036;-70
2022/09/05 02:01:26;;;;;;;7.90;2.72;;;19.90;90.20;;;;;;5036129;28;20408;-70
2022/09/05 02:04:21;;;;;;;4.78;2.47;;;19.90;90.40;;;;;;5035741;28;20544;-70
2022/09/05 02:07:05;;;;;;;4.03;2.75;;;19.80;90.40;;;;;;4991197;28;20521;-70
2022/09/05 02:09:52;;;;;;;6.50;2.63;;;19.80;90.40;;;;;;5015786;28;20091;-70
2022/09/05 02:12:32;;;;;;;4.88;2.60;;;19.80;90.60;;;;;;5015932;28;20057;-70
2022/09/05 02:15:12;;;;;;;5.20;2.85;;;19.80;90.70;;;;;;5015943;28;20092;-70
2022/09/05 02:17:40;;;;;;;4.53;2.53;;;19.80;91.00;;;;;;5015779;28;20049;-70
2022/09/05 02:20:27;;;;;;;7.55;2.80;;;19.70;91.20;;;;;;5015541;28;20091;-70
2022/09/05 02:23:31;;;;;;;5.43;2.55;;;19.80;91.40;;;;;;5015797;28;20040;-70
2022/09/05 02:26:11;;;;;;;5.13;2.67;;;19.70;91.40;;;;;;4956811;28;20063;-70
2022/09/05 02:29:10;;;;;;;5.95;3.05;;;19.60;91.50;;;;;;4956993;28;20055;-70
2022/09/05 02:31:38;;;;;;;7.47;2.83;;;19.70;91.40;;;;;;4954262;28;20532;-70
2022/09/05 02:34:16;;;;;;;6.45;3.20;;;19.60;91.70;;;;;;4956940;28;20069;-70
2022/09/05 02:36:48;;;;;;;6.70;2.97;;;19.60;91.90;;;;;;4957271;28;20086;-70
2022/09/05 02:39:13;;;;;;;4.97;2.95;;;19.50;92.10;;;;;;4956801;28;20542;-70
2022/09/05 02:41:56;;;;;;;5.20;2.95;;;19.50;92.20;;;;;;4956775;28;20047;-70
2022/09/05 02:44:45;;;;;;;5.32;3.08;;;19.50;92.20;;;;;;5014610;28;20081;-70
2022/09/05 02:47:25;;;;;;;6.10;2.60;;;19.60;92.40;;;;;;5015056;28;20123;-70
2022/09/05 02:50:17;;;;;;;4.97;2.50;;;19.50;92.50;;;;;;5015011;28;20403;-70
2022/09/05 02:52:47;;;;;;;5.47;2.67;;;19.50;92.50;;;;;;5015015;28;20041;-70
2022/09/05 02:55:40;;;;;;;4.65;3.28;;;19.40;93.00;;;;;;5015087;28;20053;-70
2022/09/05 02:58:37;;;;;;;5.53;3.30;;;19.40;93.20;;;;;;4972291;28;20049;-71
2022/09/05 03:01:15;;;;;;;4.40;3.20;;;19.30;93.40;;;;;;5029760;28;20044;-70
2022/09/05 03:03:56;;;;;;;5.60;3.22;;;19.30;93.70;;;;;;5072154;28;20517;-70
2022/09/05 03:06:58;;;;;;;6.22;3.42;;;19.30;93.90;;;;;;5055344;28;20041;-70
2022/09/05 03:09:50;;;;;;;4.88;2.83;;;19.30;93.80;;;;;;5055514;28;20050;-70
2022/09/05 03:12:39;;;;;;;6.90;3.05;;;19.30;94.00;;;;;;5072053;28;20037;-70
2022/09/05 03:15:53;;;;;;;5.47;3.08;;;19.20;94.30;;;;;;5071978;28;20066;-70
2022/09/05 03:18:47;;;;;;;6.85;3.30;;;19.20;94.30;;;;;;5034645;28;20045;-70
2022/09/05 03:21:53;;;;;;;5.10;3.47;;;19.20;94.70;;;;;;5034420;28;20104;-70
2022/09/05 03:24:55;;;;;;;5.55;3.38;;;19.10;94.80;;;;;;5034486;28;20048;-70
2022/09/05 03:27:38;;;;;;;7.38;3.40;;;19.10;95.00;;;;;;5034194;28;20068;-70
2022/09/05 03:30:11;;;;;;;10.98;3.13;;;19.00;95.30;;;;;;5034711;28;20159;-70
2022/09/05 03:33:04;;;;;;;5.00;3.40;;;19.10;95.50;;;;;;5034229;28;20041;-70
2022/09/05 03:36:03;;;;;;;5.13;3.35;;;19.10;95.70;;;;;;5034601;28;20053;-70
2022/09/05 03:39:15;;;;;;;5.32;3.30;;;19.00;96.00;;;;;;5034202;28;20049;-70
2022/09/05 03:42:05;;;;;;;4.20;3.03;;;19.00;96.00;;;;;;4995524;28;20064;-70
2022/09/05 03:44:37;;;;;;;5.68;3.13;;;19.00;96.10;;;;;;5038583;28;20052;-70
2022/09/05 03:47:23;;;;;;;5.82;2.80;;;18.90;96.40;;;;;;5038260;28;20068;-70
2022/09/05 03:50:22;;;;;;;7.43;3.22;;;19.00;96.30;;;;;;5038166;28;20072;-70
2022/09/05 03:52:53;;;;;;;6.43;3.70;;;19.00;96.70;;;;;;5038166;28;20069;-70
2022/09/05 03:55:30;;;;;;;6.80;3.28;;;18.90;96.80;;;;;;5065251;28;20049;-70
2022/09/05 03:58:28;;;;;;;7.80;3.20;;;18.90;96.80;;;;;;5075789;28;20033;-71
2022/09/05 04:01:06;;;;;;;8.23;3.47;;;18.90;96.90;;;;;;5075756;28;20146;-70
2022/09/05 04:03:41;;;;;;;7.45;3.47;;;18.80;97.50;;;;;;5075721;28;20485;-70
2022/09/05 04:06:19;;;;;;;5.57;3.10;;;18.80;97.60;;;;;;5075373;28;20123;-70
2022/09/05 04:08:49;;;;;;;5.43;3.58;;;18.80;97.90;;;;;;5075313;28;20041;-70
2022/09/05 04:11:43;;;;;;;6.13;3.63;;;18.80;98.10;;;;;;5075278;28;20041;-70
2022/09/05 04:14:21;;;;;;;4.20;3.13;;;18.80;98.00;;;;;;5075670;28;20504;-70
2022/09/05 04:16:59;;;;;;;5.15;3.75;;;18.70;98.30;;;;;;5075149;28;20072;-70
2022/09/05 04:19:42;;;;;;;8.10;3.50;;;18.70;98.40;;;;;;5075334;28;20044;-70
2022/09/05 04:22:36;;;;;;;;;;;18.60;98.80;;;;;;5075575;28;20052;-70
2022/09/05 04:25:17;;;;;;;6.30;3.40;;;18.50;98.60;;;;;;4989012;28;20068;-70
2022/09/05 04:28:07;;;;;;;5.00;3.30;;;18.50;99.10;;;;;;5074984;28;20078;-70
2022/09/05 04:30:44;;;;;;;5.38;3.95;;;18.50;99.20;;;;;;5075246;28;20083;-70
2022/09/05 04:33:23;;;;;;;6.50;3.70;;;18.50;99.60;;;;;;5074932;28;20124;-70
2022/09/05 04:35:56;;;;;;;7.60;3.90;;;18.50;99.80;;;;;;5074903;28;20045;-70
2022/09/05 04:38:38;;;;;;;;;;;18.50;99.90;;;;;;5075155;28;20405;-70
2022/09/05 04:41:35;;;;;;;4.95;3.58;;;18.40;99.90;;;;;;5074813;28;19998;-70
2022/09/05 04:44:10;;;;;;;8.15;3.85;;;18.40;99.90;;;;;;5037508;28;20048;-70
2022/09/05 04:46:40;;;;;;;6.60;3.47;;;18.40;99.90;;;;;;5037261;28;20263;-70
2022/09/05 04:49:14;;;;;;;6.45;3.72;;;18.40;99.90;;;;;;5037415;28;20053;-70
2022/09/05 04:52:18;;;;;;;6.97;3.78;;;18.40;99.90;;;;;;5037054;28;20037;-70
2022/09/05 04:55:17;;;;;;;6.55;3.72;;;18.40;99.90;;;;;;5036527;28;20059;-70
2022/09/05 04:58:05;;;;;;;5.10;3.70;;;18.40;99.90;;;;;;5024208;28;20495;-70
2022/09/05 05:00:53;;;;;;;5.53;3.20;;;18.30;99.90;;;;;;5037146;28;20067;-70
2022/09/05 05:03:27;;;;;;;6.68;3.92;;;18.30;99.90;;;;;;5053573;28;20037;-70
2022/09/05 05:06:09;;;;;;;4.32;3.67;;;18.30;99.90;;;;;;5036756;28;20041;-70
2022/09/05 05:08:59;;;;;;;10.18;4.00;;;18.30;99.90;;;;;;5036852;28;20124;-70
2022/09/05 05:11:58;;;;;;;5.28;3.65;;;18.30;99.90;;;;;;5036661;28;20041;-70
2022/09/05 05:14:41;;;;;;;6.25;4.07;;;18.30;99.90;;;;;;5036933;28;20099;-70
2022/09/05 05:17:31;;;;;;;6.45;3.97;;;18.20;99.90;;;;;;5036572;28;20532;-70
2022/09/05 05:20:07;;;;;;;8.77;4.18;;;18.30;99.90;;;;;;5039479;28;20056;-70
2022/09/05 05:22:33;;;;;;;5.57;3.85;;;18.30;99.90;;;;;;5074049;28;20040;-70
2022/09/05 05:25:00;;;;;;;8.38;3.97;;;18.20;99.90;;;;;;5074088;28;20044;-70
2022/09/05 05:27:46;;;;;;;4.95;3.70;;;18.20;99.90;;;;;;5073803;28;20047;-70
2022/09/05 05:30:24;;;;;;;5.57;3.85;;;18.30;99.90;;;;;;5074073;28;20453;-70
2022/09/05 05:32:53;;;;;;;8.18;4.00;;;18.20;99.90;;;;;;5073766;28;20494;-70
2022/09/05 05:35:29;;;;;;;5.22;3.85;;;18.20;99.90;;;;;;5074039;28;20143;-70
2022/09/05 05:38:17;;;;;;;8.15;4.13;;;18.20;99.90;;;;;;5073767;28;20028;-70
2022/09/05 05:40:51;;;;;;;6.40;4.13;;;18.20;99.90;;;;;;5073623;28;20119;-70
2022/09/05 05:43:39;;;;;;;6.10;4.25;;;18.20;99.90;;;;;;5057203;28;20059;-70
2022/09/05 05:46:05;;;;;;;10.00;4.38;;;18.20;99.90;;;;;;5057092;28;20517;-70
2022/09/05 05:48:39;;;;;;;11.35;4.20;;;18.20;99.90;;;;;;5073479;28;20052;-71
2022/09/05 05:51:19;;;;;;;9.98;4.25;;;18.30;99.90;;;;;;5073371;28;20037;-67
2022/09/05 05:54:23;;;;;;;7.20;4.00;;;18.30;99.90;;;;;;5073377;28;20128;-67
2022/09/05 05:57:45;;;;;;;6.90;4.10;;;18.30;99.90;;;;;;5073576;28;20044;-67
2022/09/05 06:00:20;;;;;;;6.57;3.80;;;18.30;99.90;;;;;;5073187;28;20052;-67
2022/09/05 06:02:55;;;;;;;5.57;3.70;;;18.30;99.90;;;;;;5073183;28;20413;-67
2022/09/05 06:05:43;;;;;;;5.75;4.10;;;18.40;99.90;;;;;;5072036;28;20132;-67
2022/09/05 06:08:33;;;;;;;6.63;4.60;;;18.40;99.90;;;;;;5073288;28;20050;-68
2022/09/05 06:11:35;;;;;;;4.90;4.13;;;18.50;99.90;;;;;;5073041;28;20048;-67
2022/09/05 06:14:29;;;;;;;8.88;4.10;;;18.50;99.90;;;;;;5073024;28;20035;-68
2022/09/05 06:17:19;;;;;;;5.00;4.07;;;18.50;99.90;;;;;;5073212;28;20044;-67
2022/09/05 06:20:17;;;;;;;6.65;4.05;;;18.60;99.90;;;;;;5073099;28;20052;-68
2022/09/05 06:23:27;;;;;;;7.47;3.67;;;18.70;99.90;;;;;;5074174;28;20036;-67
2022/09/05 06:26:36;;;;;;;7.45;4.07;;;18.70;99.90;;;;;;5034947;28;20056;-67
2022/09/05 06:29:31;;;;;;;7.05;3.88;;;18.80;99.90;;;;;;5035107;28;20045;-68
2022/09/05 06:32:05;;;;;;;8.77;4.65;;;18.80;99.90;;;;;;5035164;28;20045;-68
2022/09/05 06:34:52;;;;;;;6.70;4.30;;;18.80;99.90;;;;;;5035337;28;20037;-68
2022/09/05 06:37:24;;;;;;;6.13;4.35;;;18.90;99.90;;;;;;5035032;28;20128;-67
2022/09/05 06:39:55;;;;;;;4.85;3.85;;;18.90;99.90;;;;;;5034861;28;20044;-68
2022/09/05 06:42:31;;;;;;;7.25;4.65;;;19.00;99.90;;;;;;5034906;28;20135;-67
2022/09/05 06:45:15;;;;;;;5.07;3.78;;;19.10;99.90;;;;;;5035082;28;20600;-67
2022/09/05 06:47:45;;;;;;;7.60;4.10;;;19.20;99.90;;;;;;5034923;28;20045;-67
2022/09/05 06:50:17;;;;;;;5.68;3.70;;;19.20;99.90;;;;;;5034761;28;20125;-67
2022/09/05 06:53:26;;;;;;;5.07;4.15;;;19.30;99.90;;;;;;5034708;28;20074;-67
2022/09/05 06:56:13;;;;;;;7.45;3.80;;;19.40;99.90;;;;;;5034776;28;20056;-67
2022/09/05 06:58:55;;;;;;;8.48;3.88;;;19.50;99.90;;;;;;5034642;28;20052;-67
2022/09/05 07:01:28;;;;;;;5.73;3.80;;;19.50;99.90;;;;;;5036282;28;20045;-67
2022/09/05 07:04:11;;;;;;;5.22;3.47;;;19.60;99.90;;;;;;5072421;28;20094;-67
2022/09/05 07:06:55;;;;;;;9.48;4.00;;;19.70;99.90;;;;;;5072133;28;20127;-67
2022/09/05 07:09:34;;;;;;;6.85;3.63;;;19.70;99.90;;;;;;5072038;28;20068;-68
2022/09/05 07:12:27;;;;;;;6.40;3.55;;;19.80;99.90;;;;;;5055396;28;20032;-67
2022/09/05 07:15:08;;;;;;;6.45;3.88;;;19.90;99.90;;;;;;5072030;28;20036;-67
2022/09/05 07:17:57;;;;;;;6.15;3.75;;;20.00;99.90;;;;;;5071608;28;20041;-67
2022/09/05 07:20:33;;;;;;;5.63;4.05;;;20.10;99.90;;;;;;5055247;28;20033;-67
2022/09/05 07:23:48;;;;;;;6.40;3.47;;;20.10;99.90;;;;;;5071951;28;20041;-67
2022/09/05 07:26:16;;;;;;;6.60;3.67;;;20.30;99.90;;;;;;5034193;28;20478;-67
2022/09/05 07:28:48;;;;;;;8.27;4.25;;;20.30;99.90;;;;;;5034342;28;20056;-67
2022/09/05 07:31:17;;;;;;;8.95;3.92;;;20.40;99.90;;;;;;5055717;28;20596;-68
2022/09/05 07:33:46;;;;;;;7.13;4.13;;;20.50;99.90;;;;;;5072339;28;20040;-67
2022/09/05 07:36:21;;;;;;;9.05;4.05;;;20.70;99.80;;;;;;5071697;28;20045;-71
2022/09/05 07:38:50;;;;;;;5.90;3.78;;;20.80;99.60;;;;;;5071971;28;20043;-67
2022/09/05 07:41:26;;;;;;;6.90;3.65;;;20.90;99.80;;;;;;5071734;28;20513;-68
2022/09/05 07:44:05;;;;;;;6.60;3.83;;;21.00;99.30;;;;;;5055014;28;20047;-67
2022/09/05 07:46:36;;;;;;;8.40;3.63;;;21.20;99.00;;;;;;5071618;28;20043;-67
2022/09/05 07:49:11;;;;;;;7.15;4.22;;;21.30;98.50;;;;;;5072877;28;20086;-66
2022/09/05 07:51:45;;;;;;;6.38;3.63;;;21.50;98.10;;;;;;5054900;28;20124;-66
2022/09/05 07:54:19;;;;;;;7.95;3.78;;;21.70;97.70;;;;;;5071892;28;20033;-67
2022/09/05 07:57:02;;;;;;;5.82;3.35;;;21.90;97.10;;;;;;5071599;28;20119;-68
2022/09/05 07:59:32;;;;;;;6.32;3.75;;;22.10;96.40;;;;;;5071502;28;20087;-66
2022/09/05 08:01:59;;;;;;;4.90;3.75;;;22.20;96.20;;;;;;5072101;28;20043;-67
2022/09/05 08:04:31;;;;;;;7.50;3.67;;;22.40;95.20;;;;;;5054787;28;20044;-66
2022/09/05 08:07:03;;;;;;;6.63;3.30;;;22.60;94.90;;;;;;5071403;28;20036;-66
2022/09/05 08:09:46;;;;;;;8.88;3.67;;;22.70;94.30;;;;;;5071445;28;20686;-66
2022/09/05 08:12:20;;;;;;;5.38;2.97;;;22.80;93.70;;;;;;5071560;28;20076;-66
2022/09/05 08:15:15;;;;;;;8.48;3.40;;;22.90;93.40;;;;;;5071403;28;20052;-67
2022/09/05 08:18:11;;;;;;;4.38;3.22;;;23.10;93.70;;;;;;5071401;28;20493;-67
2022/09/05 08:20:57;;;;;;;5.75;3.40;;;23.20;93.30;;;;;;5054615;28;20040;-71
2022/09/05 08:23:33;;;;;;;8.95;3.20;;;23.40;92.70;;;;;;5071357;28;20043;-71
2022/09/05 08:26:30;;;;;;;7.05;3.35;;;23.60;92.00;;;;;;5054366;28;20467;-71
2022/09/05 08:29:14;;;;;;;6.70;2.88;;;23.70;91.10;;;;;;5065182;28;20056;-71
2022/09/05 08:32:00;;;;;;;5.20;2.88;;;23.90;90.40;;;;;;5058550;28;20036;-71
2022/09/05 08:37:02;;;;;;;8.45;2.88;;;24.20;90.20;;;;;;5479909;22;20062;-72
2022/09/05 08:39:30;;;;;;;5.47;2.65;;;24.50;89.30;;;;;;4979276;28;20137;-71
2022/09/05 08:42:27;;;;;;;5.70;3.10;;;24.70;87.80;;;;;;4979197;28;20030;-73
2022/09/05 08:45:16;;;;;;;6.97;2.85;;;24.90;89.00;;;;;;4978537;28;20086;-75
2022/09/05 08:48:06;;;;;;;6.90;3.20;;;25.00;87.40;;;;;;4980500;28;20053;-75
2022/09/05 08:50:34;;;;;;;5.28;3.08;;;25.10;86.80;;;;;;4979373;28;20046;-75
2022/09/05 08:53:24;;;;;;;8.02;2.97;;;25.30;85.90;;;;;;4979049;28;20125;-75
2022/09/05 08:55:59;;;;;;;6.55;2.92;;;25.50;85.20;;;;;;4963121;28;20034;-75
2022/09/05 08:58:40;;;;;;;4.88;2.50;;;25.70;83.70;;;;;;4962830;28;20049;-75
2022/09/05 09:01:18;;;;;;;5.50;2.50;;;26.00;82.40;;;;;;4978961;28;20038;-75
2022/09/05 09:03:47;;;;;;;4.28;2.55;;;26.30;80.80;;;;;;4978909;28;20045;-75
2022/09/05 09:06:21;;;;;;;4.18;2.60;;;26.60;79.40;;;;;;4978699;28;20038;-75
2022/09/05 09:09:02;;;;;;;4.65;2.33;;;26.70;78.00;;;;;;4962768;28;20038;-75
2022/09/05 09:11:41;;;;;;;8.88;2.60;;;27.10;77.60;;;;;;4963213;28;20065;-75
2022/09/05 09:14:34;;;;;;;7.68;2.60;;;27.30;75.70;;;;;;4978656;28;20050;-75
2022/09/05 09:17:14;;;;;;;5.13;2.55;;;27.50;75.10;;;;;;4978854;28;20046;-75
2022/09/05 09:20:04;;;;;;;9.90;2.10;;;27.70;75.10;;;;;;4978599;28;20046;-75
2022/09/05 09:22:51;;;;;;;5.95;2.50;;;28.00;72.10;;;;;;4978833;28;20050;-75
2022/09/05 09:25:35;;;;;;;6.57;2.35;;;28.30;70.40;;;;;;4978657;28;20188;-75
2022/09/05 09:28:32;;;;;;;5.20;2.15;;;28.50;69.00;;;;;;4978447;28;20453;-75
2022/09/05 09:31:09;;;;;;;5.80;2.50;;;28.70;68.40;;;;;;4962254;28;20042;-75
2022/09/05 09:33:52;;;;;;;6.05;2.10;;;28.90;67.50;;;;;;4962300;28;20080;-76
2022/09/05 09:36:42;;;;;;;2.85;1.98;;;29.10;65.20;;;;;;4978078;28;20046;-75
2022/09/05 09:39:25;;;;;;;4.05;2.30;;;29.20;64.10;;;;;;4978302;28;20050;-76
2022/09/05 09:42:40;;;;;;;4.70;2.05;;;29.30;63.70;;;;;;4978192;28;20046;-76
2022/09/05 09:45:34;;;;;;;3.58;2.35;;;29.50;62.90;;;;;;4933595;28;20096;-76
2022/09/05 09:48:08;;;;;;;3.95;2.10;;;29.60;63.20;;;;;;4978302;28;20038;-76
2022/09/05 09:50:46;;;;;;;5.43;2.40;;;29.70;61.80;;;;;;4978073;28;20125;-75
2022/09/05 09:53:38;;;;;;;4.85;2.05;;;29.90;61.60;;;;;;4977968;28;20046;-76
2022/09/05 09:56:36;;;;;;;4.18;1.80;;;30.10;61.30;;;;;;4978056;28;20038;-76
2022/09/05 09:59:28;;;;;;;6.75;2.20;;;30.40;59.40;;;;;;4961782;28;20045;-75
2022/09/05 10:02:32;;;;;;;10.75;3.13;;;30.50;59.10;;;;;;4977869;28;20088;-75
2022/09/05 10:05:33;;;;;;;4.80;1.88;;;30.70;59.00;;;;;;4947534;28;20054;-75
2022/09/05 10:08:17;;;;;;;6.32;2.03;;;30.90;58.10;;;;;;4933422;28;20069;-75
2022/09/05 10:11:06;;;;;;;3.58;2.15;;;31.00;57.70;;;;;;4961476;28;20042;-75
2022/09/05 10:13:53;;;;;;;4.22;2.33;;;31.10;56.80;;;;;;4977863;28;20458;-75
2022/09/05 10:16:32;;;;;;;5.18;2.15;;;31.20;56.70;;;;;;4961546;28;20042;-75
2022/09/05 10:19:36;;;;;;;7.53;2.17;;;31.30;56.30;;;;;;4961408;28;20045;-75
2022/09/05 10:22:23;;;;;;;3.70;1.88;;;31.20;55.90;;;;;;4977440;28;20418;-75
2022/09/05 10:25:20;;;;;;;3.95;2.10;;;31.30;55.00;;;;;;4961539;28;20049;-75
2022/09/05 10:28:11;;;;;;;9.70;2.28;;;31.30;54.60;;;;;;4977549;28;20046;-75
2022/09/05 10:30:52;;;;;;;3.75;1.50;;;31.30;54.80;;;;;;4961221;28;20042;-75
2022/09/05 10:33:37;;;;;;;4.32;1.58;;;31.40;55.00;;;;;;4961460;28;20080;-75
2022/09/05 10:36:23;;;;;;;3.03;2.00;;;31.50;54.30;;;;;;4977163;28;20046;-75
2022/09/05 10:38:52;;;;;;;3.85;2.00;;;31.60;53.30;;;;;;4977166;28;20088;-76
2022/09/05 10:41:25;;;;;;;4.78;2.10;;;31.80;53.00;;;;;;4961209;28;20057;-76
2022/09/05 10:44:00;;;;;;;5.05;2.08;;;31.90;52.70;;;;;;4977299;28;20050;-76
2022/09/05 10:46:54;;;;;;;5.10;1.75;;;32.10;52.80;;;;;;4960955;28;20372;-76
2022/09/05 10:49:29;;;;;;;5.32;1.98;;;32.20;52.80;;;;;;4977314;28;20105;-76
2022/09/05 10:52:05;;;;;;;6.95;1.77;;;32.30;51.60;;;;;;4976622;28;20053;-76
2022/09/05 10:54:56;;;;;;;3.83;2.00;;;32.40;51.00;;;;;;4976885;28;20454;-76
2022/09/05 10:57:31;;;;;;;2.90;1.55;;;32.50;50.00;;;;;;4972196;28;20050;-75
2022/09/05 11:00:03;;;;;;;2.63;1.70;;;32.50;50.70;;;;;;4977107;28;20042;-76
2022/09/05 11:02:30;;;;;;;4.57;1.70;;;32.30;50.50;;;;;;4960593;28;20042;-75
2022/09/05 11:05:18;;;;;;;4.20;1.58;;;32.30;51.30;;;;;;4976740;28;20049;-75
2022/09/05 11:07:53;;;;;;;4.22;1.50;;;32.50;50.90;;;;;;4976534;28;20395;-76
2022/09/05 11:10:39;;;;;;;3.40;1.70;;;32.60;50.40;;;;;;4976626;28;20472;-76
2022/09/05 11:13:24;;;;;;;5.47;1.73;;;32.60;50.30;;;;;;4976806;28;20050;-76
2022/09/05 11:16:27;;;;;;;8.57;1.95;;;32.60;51.60;;;;;;4976521;28;20068;-76
2022/09/05 11:19:16;;;;;;;4.95;1.77;;;32.80;50.70;;;;;;4976788;28;20042;-75
2022/09/05 11:21:42;;;;;;;3.65;1.83;;;32.90;49.50;;;;;;4976558;28;20042;-75
2022/09/05 11:24:17;;;;;;;2.88;1.40;;;33.00;49.40;;;;;;4976672;28;20050;-75
2022/09/05 11:26:55;;;;;;;2.75;1.55;;;33.00;49.20;;;;;;4976297;28;20043;-76
2022/09/05 11:29:30;;;;;;;3.70;1.90;;;33.20;48.50;;;;;;4960633;28;20050;-76
2022/09/05 11:32:02;;;;;;;5.07;1.70;;;33.50;48.20;;;;;;4976395;28;20042;-75
2022/09/05 11:34:54;;;;;;;7.65;1.77;;;33.80;47.90;;;;;;4976321;28;20045;-75
2022/09/05 11:37:46;;;;;;;5.28;1.42;;;33.90;47.70;;;;;;4960442;28;20041;-75
2022/09/05 11:40:23;;;;;;;2.93;1.60;;;34.00;45.50;;;;;;4960300;28;20044;-76
2022/09/05 11:42:55;;;;;;;5.45;1.50;;;34.10;46.70;;;;;;4976283;28;20042;-76
2022/09/05 11:45:54;;;;;;;4.30;1.67;;;34.30;46.50;;;;;;4976166;28;20042;-76
2022/09/05 11:48:57;;;;;;;7.07;1.60;;;34.40;46.20;;;;;;4976224;28;20085;-76
2022/09/05 11:51:54;;;;;;;3.22;1.30;;;34.50;45.20;;;;;;4959997;28;20081;-76
2022/09/05 11:54:47;;;;;;;3.35;1.30;;;34.50;43.70;;;;;;4960209;28;20084;-76
2022/09/05 11:57:44;;;;;;;6.28;1.42;;;34.40;43.80;;;;;;4976105;28;20049;-76
2022/09/05 12:00:15;;;;;;;3.45;1.60;;;34.30;43.50;;;;;;4960255;28;20082;-76
2022/09/05 12:02:59;;;;;;;5.70;1.58;;;34.30;44.80;;;;;;4977199;28;20041;-76
2022/09/05 12:06:03;;;;;;;3.75;1.60;;;34.10;44.50;;;;;;4979943;28;20050;-76
2022/09/05 12:08:35;;;;;;;4.90;1.40;;;34.00;44.50;;;;;;4979867;28;20530;-76
2022/09/05 12:11:22;;;;;;;2.53;1.17;;;34.10;44.60;;;;;;4979882;28;20569;-76
2022/09/05 12:14:26;;;;;;;3.65;1.40;;;34.10;45.30;;;;;;4979741;28;20046;-76
2022/09/05 12:17:03;;;;;;;6.07;1.90;;;34.30;43.90;;;;;;4979897;28;20069;-76
2022/09/05 12:19:46;;;;;;;4.35;1.10;;;34.50;42.90;;;;;;4979704;28;20129;-75
2022/09/05 12:22:35;;;;;;;3.00;1.15;;;34.70;41.80;;;;;;4979712;28;20046;-76
2022/09/05 12:25:23;;;;;;;2.25;1.30;;;34.90;42.20;;;;;;4980763;28;20064;-76
2022/09/05 12:27:55;;;;;;;2.83;1.40;;;34.70;40.90;;;;;;4979775;28;20057;-76
2022/09/05 12:30:26;;;;;;;2.67;1.00;;;34.80;41.70;;;;;;4979868;28;20039;-76
2022/09/05 12:32:56;;;;;;;2.72;0.88;;;34.90;41.10;;;;;;4964499;28;20097;-76
2022/09/05 12:36:02;;;;;;;5.38;1.20;;;35.00;41.10;;;;;;4979420;28;20038;-75
2022/09/05 12:38:55;;;;;;;4.82;1.17;;;34.90;40.70;;;;;;4979246;28;20529;-76
2022/09/05 12:41:25;;;;;;;6.88;1.25;;;34.90;41.40;;;;;;4963441;28;20050;-76
2022/09/05 12:44:00;;;;;;;4.15;1.20;;;34.70;41.30;;;;;;4979189;28;20046;-76
2022/09/05 12:47:06;;;;;;;2.72;1.70;;;34.50;42.10;;;;;;4979066;28;20042;-76
2022/09/05 12:49:36;;;;;;;3.80;1.20;;;34.20;41.60;;;;;;4979184;28;20042;-76
2022/09/05 12:52:31;;;;;;;6.35;1.30;;;34.20;42.70;;;;;;4962962;28;20046;-76
2022/09/05 12:55:02;;;;;;;6.32;1.42;;;34.20;41.90;;;;;;4979138;28;20042;-75
2022/09/05 12:57:34;;;;;;;2.80;1.23;;;34.30;42.40;;;;;;4978991;28;20057;-76
2022/09/05 13:00:43;;;;;;;4.20;1.30;;;34.30;42.30;;;;;;4979014;28;20045;-76
2022/09/05 13:03:19;;;;;;;2.90;1.33;;;34.00;42.80;;;;;;4926644;28;20054;-76
2022/09/05 13:05:45;;;;;;;3.45;1.30;;;34.00;43.20;;;;;;4962920;28;20097;-76
2022/09/05 13:08:19;;;;;;;2.08;1.20;;;34.00;42.50;;;;;;4978864;28;20046;-76
2022/09/05 13:10:51;;;;;;;3.60;1.30;;;33.80;43.40;;;;;;4962722;28;20041;-76
2022/09/05 13:13:45;;;;;;;6.55;1.77;;;33.80;43.00;;;;;;4979890;28;20086;-76
2022/09/05 13:16:17;;;;;;;6.28;1.27;;;34.00;43.20;;;;;;4978369;28;20045;-76
2022/09/05 13:18:45;;;;;;;5.28;1.40;;;34.00;43.00;;;;;;4978692;28;20573;-75
2022/09/05 13:21:24;;;;;;;4.80;1.33;;;33.80;43.60;;;;;;4978584;28;20046;-75
2022/09/05 13:24:26;;;;;;;7.10;1.85;;;33.70;43.80;;;;;;4961985;28;20050;-75
2022/09/05 13:27:28;;;;;;;2.80;1.48;;;33.80;43.40;;;;;;4978466;28;20413;-76
2022/09/05 13:30:01;;;;;;;3.13;1.40;;;33.90;43.90;;;;;;4975282;28;20058;-76
2022/09/05 13:32:48;;;;;;;2.97;1.40;;;34.00;44.10;;;;;;4978398;28;20042;-76
2022/09/05 13:35:27;;;;;;;5.13;1.33;;;34.30;43.80;;;;;;4978652;28;20469;-76
2022/09/05 13:38:27;;;;;;;2.22;1.58;;;34.40;43.80;;;;;;4962035;28;20509;-75
2022/09/05 13:40:56;;;;;;;3.90;1.42;;;34.50;43.70;;;;;;4897892;29;20059;-76
2022/09/05 13:43:37;;;;;;;4.80;1.38;;;34.40;42.60;;;;;;4866755;29;20036;-76
2022/09/05 13:46:15;;;;;;;3.47;1.33;;;34.30;42.70;;;;;;4882337;29;20051;-76
2022/09/05 13:48:59;;;;;;;2.00;1.02;;;34.30;43.00;;;;;;4882074;29;20437;-76
2022/09/05 13:51:39;;;;;;;2.33;1.20;;;34.40;42.80;;;;;;4882034;29;20097;-76
2022/09/05 13:54:23;;;;;;;4.55;1.70;;;34.40;42.60;;;;;;4897640;29;20045;-76
2022/09/05 13:57:02;;;;;;;6.47;1.75;;;34.60;42.30;;;;;;4881908;29;20084;-76
2022/09/05 13:59:38;;;;;;;2.42;1.30;;;34.50;42.10;;;;;;4898053;29;20048;-75
2022/09/05 14:02:04;;;;;;;6.13;1.40;;;34.50;41.70;;;;;;4897459;29;20470;-76
2022/09/05 14:05:00;;;;;;;2.45;1.05;;;34.50;42.20;;;;;;4881898;29;20210;-76
2022/09/05 14:08:03;;;;;;;3.90;1.30;;;34.40;41.90;;;;;;4866113;29;20049;-76
2022/09/05 14:10:38;;;;;;;2.45;1.30;;;34.30;41.50;;;;;;4881963;29;20111;-76
2022/09/05 14:13:15;;;;;;;4.50;1.17;;;34.30;41.10;;;;;;4881697;29;20076;-76
2022/09/05 14:15:53;;;;;;;4.70;1.33;;;34.30;41.60;;;;;;4881561;29;20087;-76